Image
Image
Image
Image
Image
Image
Image
Image
Image
Image
Image
Image
Image
City Time Now High Low DP Feels RH% Vsby Pressure Ceiling Direction Speed Gust Precip
Algona
VFR
7:15PM 75° 75° 64° 66° 75° 74
%
10
mi
1019.6
mb
None SSE 7
mph
0.00"
KAXA 210015Z AUTO 16006KT 10SM FEW070 24/19 A3011 RMK A01
Ankeny
VFR
6:55PM 72° 72° 64° 63° 72° 73
%
9
mi
1020.0
mb
None None Calm 0.10"
KIKV 202355Z AUTO 00000KT 9SM CLR 22/17 A3012 RMK AO2
Atlantic
VFR
7:15PM 73° 73° 64° 64° 73° 73
%
10
mi
1019.3
mb
None ESE 6
mph
0.04"
KAIO 210015Z AUTO 11005KT 10SM FEW050 23/18 A3010 RMK AO2
Audubon
VFR
7:15PM 73° 75° 64° 66° 73° 78
%
10
mi
1020.0
mb
3700
ft
SSE 3
mph
0.02"
KADU 210015Z AUTO 15003KT 10SM SCT024 BKN037 OVC070 23/19 A3012 RMK AO2 PWINO
Ames
VFR
6:53PM 73° 75° 65° 64° 73° 73
%
10
mi
1019.6
mb
None SSE 7
mph
0.53"
KAMW 202353Z AUTO 15006KT 10SM CLR 23/18 A3011 RMK AO2 SLP189 60001 T02280178 10239 20206 58010
Boone
VFR
7:15PM 10
mi
1019.3
mb
None S 6
mph
0.33"
KBNW 210015Z AUTO 17005KT 10SM FEW021 SCT026 SCT030 A3010 RMK AO2
Burlington
VFR
6:53PM 74° 77° 58° 62° 74° 66
%
10
mi
1019.3
mb
None NE 5
mph
0.00"
KBRL 202353Z AUTO 04004KT 10SM CLR 23/17 A3010 RMK AO2 SLP189 T02330167 10250 20228 58009
Carroll
MVFR
7:15PM 10
mi
1019.6
mb
2600
ft
SSE 6
mph
0.00"
KCIN 210015Z AUTO 15005KT 10SM BKN026 OVC034 A3011 RMK AO2
Cedar Rapids
VFR
6:52PM 73° 78° 62° 66° 73° 79
%
10
mi
1019.3
mb
None W 8
mph
Trace
KCID 202352Z 28007KT 10SM CLR 23/19 A3010 RMK AO2 SLP188 T02280189 10250 20228 58009
Chariton
MVFR
7:15PM 72° 73° 63° 66° 72° 83
%
9
mi
1019.6
mb
2000
ft
ENE 6
mph
0.03"
KCNC 210015Z AUTO 07005KT 9SM BKN020 BKN080 22/19 A3011 RMK AO2
Charles City
VFR
7:15PM 72° 75° 64° 68° 72° 88
%
10
mi
1019.6
mb
None SW 5
mph
0.03"
KCCY 210015Z AUTO 22004KT 10SM CLR 22/20 A3011 RMK AO2
Clarinda
VFR
7:15PM 73° 73° 64° 66° 73° 78
%
10
mi
1020.0
mb
4200
ft
NE 3
mph
0.14"
KICL 210015Z AUTO 04003KT 10SM OVC042 23/19 A3012 RMK AO2
Clarion
VFR
7:15PM 10
mi
1019.6
mb
None SSE 6
mph
0.32"
KCAV 210015Z AUTO 16005KT 10SM FEW085 A3011 RMK A01
Clinton
VFR
6:56PM 76° 77° 58° 58° 76° 54
%
10
mi
1019.6
mb
None None Calm 0.00"
KCWI 202356Z AUTO 00000KT 10SM CLR 24/14 A3011 RMK AO2 SLPNO T02440144 10250 20239 56011
Council Bluffs
VFR
7:15PM 73° 75° 64° 68° 73° 83
%
10
mi
1019.0
mb
None SSE 6
mph
0.37"
KCBF 210015Z AUTO 15005KT 10SM CLR 23/20 A3009 RMK AO2
Creston
VFR
7:15PM 70° 73° 64° 68° 70° 94
%
10
mi
1020.0
mb
4100
ft
ESE 8
mph
0.05"
KCSQ 210015Z AUTO 11007KT 10SM OVC041 21/20 A3012 RMK AO2
Centerville
6:55PM 72° 75° 59° 64° 72° 78
%
10
mi
1020.0
mb
None Calm 0.10"
KTVK 202355Z AUTO 00000KT 10SM 22/18 A3012 RMK A01
Cherokee
VFR
7:15PM 72° 78° 64° 66° 72° 83
%
10
mi
1019.3
mb
None SSE 6
mph
0.14"
KCKP 210015Z AUTO 16005KT 10SM CLR 22/19 A3010 RMK AO2
Decorah
VFR
7:15PM 73° 79° 63° 63° 73° 69
%
10
mi
1019.0
mb
None VRB 3
mph
0.00"
KDEH 210015Z AUTO VRB03KT 10SM CLR 23/17 A3009 RMK AO2
Denison
VFR
7:15PM 10
mi
1020.0
mb
None S 7
mph
0.75"
KDNS 210015Z AUTO 17006KT 10SM CLR A3012 RMK AO2
Dubuque
VFR
6:53PM 73° 78° 59° 62° 73° 68
%
10
mi
1019.6
mb
None SSW 7
mph
0.00"
KDBQ 202353Z 21006KT 10SM CLR 23/17 A3011 RMK AO2 SLP194 T02280167 10256 20228 56009 $
Des Moines
VFR
6:54PM 73° 74° 64° 62° 73° 68
%
10
mi
1020.0
mb
7000
ft
E 6
mph
0.14"
KDSM 202354Z 08005KT 10SM BKN070 BKN110 BKN250 23/17 A3012 RMK AO2 SLP195 T02280167 10233 20206 58008
Estherville
VFR
6:52PM 73° 81° 65° 65° 73° 76
%
10
mi
1019.6
mb
11000
ft
SSW 6
mph
0.03"
KEST 202352Z AUTO 21005KT 10SM FEW080 OVC110 23/18 A3011 RMK AO2 SLP189 T02280183 10272 20228 55001
Fairfield
VFR
7:15PM 73° 75° 63° 61° 73° 65
%
10
mi
1019.6
mb
11000
ft
None Calm 0.00"
KFFL 210015Z AUTO 00000KT 10SM SCT050 SCT065 OVC110 23/16 A3011 RMK A01
Fort Dodge
VFR
6:56PM 10
mi
1019.6
mb
None S 6
mph
0.00"
KFOD 202356Z AUTO 18005KT 10SM SCT031 A3011 RMK AO2 SLPNO 6//// 58010 FZRANO PNO $
Fort Madison
VFR
7:15PM 72° 77° 59° 64° 72° 78
%
10
mi
1019.3
mb
12000
ft
W 5
mph
0.00"
KFSW 210015Z AUTO 28004KT 10SM OVC120 22/18 A3010 RMK AO2
Forest City
VFR
7:15PM 70° 73° 63° 64° 70° 83
%
10
mi
1020.0
mb
None S 3
mph
0.16"
KFXY 210015Z AUTO 18003KT 10SM SCT024 21/18 A3012 RMK AO2
Grinnell
VFR
7:15PM 69° 73° 66° 67° 69° 92
%
10
mi
1020.3
mb
None None Calm 0.00"
KGGI 210015Z AUTO 00000KT 10SM -DZ SCT040 SCT046 SCT055 21/20 A3013 RMK AO2 T02080195
Harlan
VFR
6:55PM 73° 75° 64° 68° 73° 83
%
10
mi
1020.0
mb
None SSE 5
mph
0.43"
KHNR 202355Z AUTO 16004KT 10SM SCT022 23/20 A3012 RMK A01
Hampton
VFR
6:55PM 68° 70° 59° 64° 68° 88
%
10
mi
1020.0
mb
None SSW 8
mph
0.80"
KHPT 202355Z AUTO 21007KT 10SM SCT110 20/18 A3012 RMK AO2
Independence
VFR
6:55PM 70° 76° 60° 64° 70° 80
%
10
mi
1020.3
mb
None WNW 7
mph
0.00"
KIIB 202355Z AUTO 30006KT 10SM CLR 21/18 A3013 RMK AO2 T02130177 10244 20212 402440156
Iowa City
VFR
6:52PM 75° 79° 61° 63° 75° 66
%
10
mi
1019.6
mb
7000
ft
WSW 5
mph
0.00"
KIOW 202352Z AUTO 24004KT 10SM BKN070 24/17 A3011 RMK AO2 SLP193 T02390172 10261 20233 58008
Iowa Falls
VFR
6:55PM 70° 73° 63° 65° 70° 85
%
10
mi
1020.3
mb
4100
ft
ESE 6
mph
0.32"
KIFA 202355Z AUTO 11005KT 10SM -RA SCT028 SCT036 BKN041 21/19 A3013 RMK AO2 60005 T02120185 10230 20205
Keokuk
VFR
7:15PM 72° 77° 59° 59° 72° 64
%
10
mi
1019.3
mb
12000
ft
None Calm 0.00"
KEOK 210015Z AUTO 00000KT 10SM OVC120 22/15 A3010 RMK A01
Knoxville
VFR
7:15PM 72° 72° 64° 64° 72° 78
%
10
mi
1019.6
mb
8000
ft
None Calm 0.01"
KOXV 210015Z AUTO 00000KT 10SM OVC080 22/18 A3011 RMK AO2
Lamoni
VFR
6:53PM 68° 76° 63° 65° 68° 90
%
10
mi
1020.0
mb
4200
ft
SSW 5
mph
0.02"
KLWD 202353Z AUTO 21004KT 10SM OVC042 20/18 A3012 RMK AO2 RAB2258E19 SLP195 P0000 60000 T02000183 10244 20194 58003
Le Mars
VFR
6:55PM 75° 79° 64° 70° 75° 83
%
9
mi
1019.0
mb
5500
ft
ESE 5
mph
0.00"
KLRJ 202355Z AUTO 11004KT 9SM SCT049 BKN055 24/21 A3009 RMK AO2
Marshalltown
VFR
6:53PM 73° 74° 65° 66° 73° 79
%
10
mi
1019.3
mb
None None Calm 0.25"
KMIW 202353Z AUTO 00000KT 10SM SCT110 23/19 A3010 RMK AO2 SLP190 60013 T02280189 10233 20200 58017
Mason City
VFR
6:53PM 69° 76° 63° 65° 69° 87
%
10
mi
1020.3
mb
None S 6
mph
0.24"
KMCW 202353Z AUTO 19005KT 10SM CLR 21/18 A3013 RMK AO2 SLP194 T02060183 10244 20206 58006
Monticello
VFR
6:55PM 75° 81° 57° 63° 75° 65
%
10
mi
1019.0
mb
None S 3
mph
0.00"
KMXO 202355Z AUTO 19003KT 10SM CLR 24/17 A3009 RMK AO2
Mount Pleasant
VFR
6:55PM 73° 73° 57° 59° 73° 61
%
10
mi
1019.6
mb
None None Calm 0.00"
KMPZ 202355Z AUTO 00000KT 10SM CLR 23/15 A3011 RMK AO2
Muscatine
VFR
6:55PM 77° 79° 57° 61° 77° 57
%
10
mi
1019.3
mb
7000
ft
SW 3
mph
0.00"
KMUT 202355Z AUTO 23003KT 10SM OVC070 25/16 A3010 RMK AO2
Newton
VFR
6:55PM 70° 73° 63° 70° 70° 100
%
9
mi
1019.6
mb
None E 5
mph
0.01"
KTNU 202355Z AUTO 08004KT 9SM CLR 21/21 A3011 RMK A01
Oelwein
VFR
6:55PM 70° 75° 61° 66° 70° 88
%
10
mi
1019.6
mb
None W 8
mph
0.00"
KOLZ 202355Z AUTO 27007KT 10SM CLR 21/19 A3011 RMK A01
Ottumwa
VFR
6:53PM 72° 75° 63° 64° 72° 76
%
10
mi
1019.6
mb
5500
ft
NNE 3
mph
Trace
KOTM 202353Z AUTO 02003KT 10SM BKN055 OVC100 22/18 A3011 RMK AO2 SLP192 60000 T02220178 10239 20217 55008
Osceola
VFR
6:55PM 73° 75° 65° 62° 73° 71
%
10
mi
1020.3
mb
6000
ft
None Calm 0.04"
KI75 202355Z AUTO 00000KT 10SM OVC060 23/17 A3013 RMK AO2 T02250169 10237 20217
Oskaloosa
MVFR
6:55PM 74° 77° 64° 65° 74° 73
%
4
mi
1020.0
mb
None None Calm 0.00"
KOOA 202355Z AUTO 00000KT 4SM SCT100 SCT120 23/18 A3012 RMK AO2 T02310181 10247 20218
Pella
VFR
6:55PM 69° 73° 63° 65° 69° 87
%
10
mi
1020.0
mb
7000
ft
None Calm 0.02"
KPEA 202355Z AUTO 00000KT 10SM OVC070 21/18 A3012 RMK AO2 T02060183 10225 20205 402340170 60001
Quad Cities
VFR
6:52PM 77° 78° 56° 58° 77° 52
%
10
mi
1020.0
mb
None None Calm 0.00"
KDVN 202352Z AUTO 00000KT 10SM CLR 25/14 A3012 RMK AO2 SLP191 T02500144 10256 20239 58011
Red Oak
VFR
6:55PM 75° 75° 64° 63° 75° 65
%
10
mi
1019.6
mb
5000
ft
ESE 5
mph
0.03"
KRDK 202355Z AUTO 12004KT 10SM OVC050 24/17 A3011 RMK AO2
Sheldon
VFR
6:55PM 72° 79° 63° 66° 72° 83
%
10
mi
1018.6
mb
None SE 7
mph
0.00"
KSHL 202355Z AUTO 14006KT 10SM FEW060 SCT075 SCT100 22/19 A3008 RMK AO2
Shenandoah
VFR
6:55PM 75° 75° 64° 64° 75° 69
%
10
mi
1019.0
mb
5000
ft
VRB 5
mph
0.58"
KSDA 202355Z AUTO VRB04KT 10SM OVC050 24/18 A3009 RMK AO2
Sioux City
VFR
6:52PM 76° 79° 63° 65° 76° 69
%
10
mi
1019.0
mb
None SSE 8
mph
0.00"
KSUX 202352Z 15007KT 10SM CLR 24/18 A3009 RMK AO2 LTG DSNT N AND NE SLP185 T02440183 10261 20233 55002
Spencer
VFR
6:53PM 76° 80° 65° 65° 76° 69
%
10
mi
1019.3
mb
None SSW 9
mph
0.06"
KSPW 202353Z AUTO 20008KT 10SM FEW023 24/18 A3010 RMK AO2 SLP188 60005 T02440183 10267 20222 56007 $
Sioux County
VFR
6:55PM 75° 79° 63° 68° 75° 78
%
10
mi
1018.6
mb
None SE 12
mph
0.00"
KSXK 202355Z AUTO 13010KT 10SM FEW030 SCT041 SCT049 24/20 A3008 RMK AO2
Storm Lake
6:35PM 72° 75° 63° 68° 72° 88
%
1020.3
mb
S 5
mph
0.03"
KSLB 202335Z AUTO 17004KT 22/20 A3013 RMK AO2
Vinton
VFR
6:55PM 71° 79° 62° 67° 71° 88
%
10
mi
1020.0
mb
10000
ft
W 7
mph
0.00"
KVTI 202355Z AUTO 28006KT 10SM SCT016 SCT021 OVC100 22/20 A3012 RMK AO2 T02150195 10246 20215
Washington
VFR
7:15PM 73° 77° 59° 61° 73° 65
%
10
mi
1019.0
mb
6500
ft
None Calm 0.00"
KAWG 210015Z AUTO 00000KT 10SM BKN065 23/16 A3009 RMK AO2
Waterloo
VFR
6:54PM 70° 74° 65° 65° 70° 84
%
10
mi
1019.3
mb
10000
ft
WSW 5
mph
0.14"
KALO 202354Z 24004KT 10SM OVC100 21/18 A3010 RMK AO2 SLP191 60002 T02110183 10233 20211 58010
Webster City
VFR
7:15PM 10
mi
1019.3
mb
None S 6
mph
0.03"
KEBS 210015Z AUTO 17005KT 10SM CLR A3010 RMK AO2
Click here to show this page without METARs included